Time;durP1;ratioP1;P1;durP2;ratioP2;P2;SDS_P1;SDS_P2;PMS_P1;PMS_P2;Temp;Humidity;BMP_temperature;BMP_pressure;BME280_temperature;BME280_humidity;BME280_pressure;Samples;Min_cycle;Max_cycle;Signal;HPM_P1;HPM_P2
2024/01/15 00:02:08;;;;;;;3.38;0.85;;;0.50;98.50;;;;;;4999075;28;20045;-71
2024/01/15 00:04:38;;;;;;;2.72;0.50;;;0.40;98.40;;;;;;4999981;28;20046;-70
2024/01/15 00:07:04;;;;;;;1.50;1.30;;;0.40;98.50;;;;;;5000630;28;20391;-70
2024/01/15 00:09:29;;;;;;;4.30;0.70;;;0.50;98.50;;;;;;4981801;28;20044;-70
2024/01/15 00:11:54;;;;;;;2.45;0.75;;;0.50;98.60;;;;;;4983805;28;20116;-70
2024/01/15 00:14:20;;;;;;;1.55;0.52;;;0.50;98.50;;;;;;5002915;28;20435;-71
2024/01/15 00:16:46;;;;;;;5.03;0.68;;;0.60;98.50;;;;;;4997260;28;20034;-70
2024/01/15 00:19:11;;;;;;;1.58;0.70;;;0.60;98.40;;;;;;5000018;28;20034;-71
2024/01/15 00:21:37;;;;;;;0.77;0.52;;;0.60;98.30;;;;;;4998961;28;20105;-70
2024/01/15 00:24:02;;;;;;;3.15;0.90;;;0.60;98.30;;;;;;4994371;28;20436;-70
2024/01/15 00:26:28;;;;;;;1.88;0.65;;;0.60;98.10;;;;;;5000331;28;20037;-70
2024/01/15 00:28:53;;;;;;;1.23;0.60;;;0.70;97.90;;;;;;4998182;28;20026;-71
2024/01/15 00:31:19;;;;;;;1.83;1.13;;;0.70;97.80;;;;;;5003803;28;20081;-71
2024/01/15 00:33:44;;;;;;;2.10;0.68;;;0.70;97.60;;;;;;4997270;28;20487;-69
2024/01/15 00:36:10;;;;;;;3.20;0.65;;;0.80;97.50;;;;;;5001662;28;20101;-70
2024/01/15 00:38:35;;;;;;;1.85;0.77;;;0.80;97.60;;;;;;4998363;28;20034;-71
2024/01/15 00:41:01;;;;;;;0.57;0.40;;;0.80;97.10;;;;;;5002393;28;20038;-71
2024/01/15 00:43:27;;;;;;;3.30;0.85;;;0.80;96.90;;;;;;4997735;28;20038;-70
2024/01/15 00:45:52;;;;;;;4.07;0.57;;;0.90;97.00;;;;;;4993209;28;20112;-71
2024/01/15 00:48:18;;;;;;;3.88;0.73;;;0.90;96.90;;;;;;4999516;28;20038;-71
2024/01/15 00:50:43;;;;;;;3.10;0.85;;;0.90;96.70;;;;;;4994791;28;20317;-71
2024/01/15 00:53:09;;;;;;;2.83;0.80;;;0.90;96.90;;;;;;5000838;28;20077;-70
2024/01/15 00:55:34;;;;;;;4.15;0.57;;;0.90;97.00;;;;;;4994565;28;20112;-70
2024/01/15 00:58:00;;;;;;;1.48;0.77;;;0.90;96.60;;;;;;4991863;28;20026;-70
2024/01/15 01:00:25;;;;;;;4.43;1.20;;;0.90;96.60;;;;;;4998994;28;20037;-70
2024/01/15 01:02:50;;;;;;;0.70;0.40;;;0.90;96.70;;;;;;5004141;28;20426;-70
2024/01/15 01:05:16;;;;;;;3.55;0.88;;;0.90;96.70;;;;;;4976963;28;20143;-71
2024/01/15 01:07:41;;;;;;;2.35;0.95;;;1.00;96.30;;;;;;4997138;28;20045;-71
2024/01/15 01:10:07;;;;;;;1.20;0.50;;;0.90;96.60;;;;;;4984511;28;20041;-70
2024/01/15 01:12:33;;;;;;;0.40;0.40;;;0.90;96.60;;;;;;4999957;28;20155;-71
2024/01/15 01:14:58;;;;;;;1.67;0.80;;;0.90;96.90;;;;;;4998088;28;20037;-70
2024/01/15 01:17:24;;;;;;;0.70;0.55;;;0.90;96.80;;;;;;5003407;28;20412;-70
2024/01/15 01:19:50;;;;;;;6.00;0.88;;;0.80;97.10;;;;;;4997579;28;20458;-71
2024/01/15 01:22:15;;;;;;;4.55;0.98;;;0.80;97.70;;;;;;5001303;28;20034;-71
2024/01/15 01:24:41;;;;;;;3.63;0.50;;;0.70;98.00;;;;;;4997189;28;20121;-72
2024/01/15 01:27:07;;;;;;;4.47;0.47;;;0.70;98.10;;;;;;4995446;28;20160;-70
2024/01/15 01:29:32;;;;;;;1.15;0.60;;;0.70;98.20;;;;;;4997910;28;20184;-70
2024/01/15 01:31:58;;;;;;;2.50;0.73;;;0.70;98.30;;;;;;4997069;28;20084;-70
2024/01/15 01:34:23;;;;;;;2.38;1.08;;;0.80;97.90;;;;;;4997617;28;20113;-70
2024/01/15 01:36:49;;;;;;;3.22;1.00;;;0.90;97.70;;;;;;5002095;28;20052;-70
2024/01/15 01:39:14;;;;;;;1.17;0.63;;;0.90;97.70;;;;;;4995906;28;20123;-72
2024/01/15 01:41:40;;;;;;;2.97;0.75;;;1.00;97.70;;;;;;4998340;28;20101;-71
2024/01/15 01:44:05;;;;;;;0.90;0.45;;;1.00;97.80;;;;;;5001805;28;20079;-70
2024/01/15 01:46:31;;;;;;;2.85;0.77;;;1.00;98.00;;;;;;4995917;28;20402;-69
2024/01/15 01:48:57;;;;;;;0.77;0.70;;;1.00;98.00;;;;;;4996583;28;20121;-70
2024/01/15 01:51:25;;;;;;;1.00;0.63;;;0.90;98.20;;;;;;5000046;28;20046;-70
2024/01/15 01:53:50;;;;;;;0.80;0.57;;;1.00;98.00;;;;;;4999658;28;20639;-70
2024/01/15 01:56:17;;;;;;;1.00;0.32;;;1.00;98.10;;;;;;4998276;28;20038;-70
2024/01/15 01:58:44;;;;;;;1.52;0.98;;;0.90;98.30;;;;;;4998803;28;20279;-70
2024/01/15 02:01:10;;;;;;;0.47;0.20;;;0.80;98.40;;;;;;4997502;28;20038;-72
2024/01/15 02:03:36;;;;;;;2.88;0.52;;;0.80;98.80;;;;;;4997378;28;20074;-70
2024/01/15 02:06:01;;;;;;;2.50;0.70;;;0.70;99.00;;;;;;4992919;28;20112;-73
2024/01/15 02:08:27;;;;;;;1.15;0.47;;;0.60;99.20;;;;;;4997343;28;20410;-70
2024/01/15 02:10:52;;;;;;;1.52;0.38;;;0.60;99.40;;;;;;4996337;28;20042;-70
2024/01/15 02:13:20;;;;;;;1.52;0.68;;;0.60;99.40;;;;;;4993270;28;20093;-70
2024/01/15 02:15:45;;;;;;;3.85;0.88;;;0.70;99.30;;;;;;4994038;28;20391;-71
2024/01/15 02:18:10;;;;;;;0.68;0.40;;;0.70;99.20;;;;;;4997467;28;20042;-70
2024/01/15 02:20:36;;;;;;;0.65;0.47;;;0.60;99.30;;;;;;4996889;28;20636;-70
2024/01/15 02:23:10;;;;;;;0.93;0.52;;;0.70;99.40;;;;;;4990710;28;20129;-71
2024/01/15 02:25:43;;;;;;;3.58;0.38;;;0.70;99.40;;;;;;4991661;28;20022;-70
2024/01/15 02:28:10;;;;;;;0.15;0.15;;;0.70;99.50;;;;;;4994923;28;20030;-70
2024/01/15 02:30:41;;;;;;;3.78;0.73;;;0.80;99.50;;;;;;4994931;28;20063;-70
2024/01/15 02:33:10;;;;;;;0.20;0.20;;;0.80;99.50;;;;;;4997210;28;20340;-72
2024/01/15 02:35:36;;;;;;;3.53;0.47;;;0.80;99.40;;;;;;4998933;28;20116;-70
2024/01/15 02:38:03;;;;;;;0.52;0.40;;;0.80;99.40;;;;;;4998359;28;20420;-70
2024/01/15 02:40:28;;;;;;;4.30;0.70;;;0.80;99.40;;;;;;4995474;28;20160;-70
2024/01/15 02:42:54;;;;;;;3.50;1.10;;;0.80;99.40;;;;;;4997097;28;20185;-70
2024/01/15 02:45:20;;;;;;;4.28;0.63;;;0.90;99.40;;;;;;4986606;28;20073;-70
2024/01/15 02:47:46;;;;;;;0.30;0.30;;;0.90;99.20;;;;;;4995529;28;20115;-70
2024/01/15 02:50:11;;;;;;;1.55;0.55;;;1.00;98.80;;;;;;5000041;28;20487;-70
2024/01/15 02:52:37;;;;;;;4.75;0.40;;;1.00;98.80;;;;;;4999228;28;20089;-69
2024/01/15 02:55:02;;;;;;;1.08;0.68;;;1.00;98.70;;;;;;4995058;28;20512;-71
2024/01/15 02:57:28;;;;;;;0.30;0.30;;;1.00;98.70;;;;;;4994008;28;20508;-70
2024/01/15 02:59:53;;;;;;;1.45;0.50;;;0.90;98.80;;;;;;4994876;28;20033;-70
2024/01/15 03:02:19;;;;;;;1.55;0.50;;;0.90;98.90;;;;;;5001187;28;20034;-70
2024/01/15 03:04:44;;;;;;;2.35;0.50;;;0.80;99.10;;;;;;5001751;28;20132;-71
2024/01/15 03:07:10;;;;;;;0.47;0.47;;;0.90;99.20;;;;;;4997654;28;20030;-70
2024/01/15 03:09:35;;;;;;;2.85;0.40;;;0.90;99.30;;;;;;4993387;28;20069;-71
2024/01/15 03:12:01;;;;;;;1.85;0.95;;;0.90;99.20;;;;;;4995381;28;20401;-71
2024/01/15 03:14:26;;;;;;;4.38;1.15;;;1.00;99.10;;;;;;4996879;28;20053;-70
2024/01/15 03:16:52;;;;;;;0.40;0.28;;;1.00;98.90;;;;;;4996288;28;20030;-70
2024/01/15 03:19:18;;;;;;;1.95;0.60;;;1.00;98.90;;;;;;4995717;28;20091;-70
2024/01/15 03:21:43;;;;;;;3.50;0.47;;;0.90;98.80;;;;;;5003900;28;20070;-72
2024/01/15 03:24:09;;;;;;;0.20;0.20;;;0.90;98.80;;;;;;4993543;28;20124;-71
2024/01/15 03:26:34;;;;;;;0.30;0.30;;;1.00;98.70;;;;;;5000061;28;20034;-70
2024/01/15 03:29:00;;;;;;;1.42;0.43;;;1.00;98.70;;;;;;4997160;28;20033;-71
2024/01/15 03:31:26;;;;;;;1.45;0.50;;;0.90;98.80;;;;;;4993443;28;20038;-71
2024/01/15 03:33:51;;;;;;;1.65;0.43;;;0.90;98.90;;;;;;4995379;28;20057;-71
2024/01/15 03:36:17;;;;;;;0.70;0.20;;;0.90;99.00;;;;;;4997035;28;20132;-70
2024/01/15 03:38:42;;;;;;;0.75;0.35;;;0.80;99.10;;;;;;4995541;28;20041;-71
2024/01/15 03:41:08;;;;;;;3.20;0.75;;;0.80;99.20;;;;;;4997000;28;20030;-71
2024/01/15 03:43:33;;;;;;;4.38;0.80;;;0.90;99.30;;;;;;4991208;28;20088;-70
2024/01/15 03:45:59;;;;;;;2.25;0.70;;;1.00;99.10;;;;;;4990467;28;20482;-70
2024/01/15 03:48:24;;;;;;;3.03;0.40;;;1.00;98.80;;;;;;4991199;28;20033;-71
2024/01/15 03:50:50;;;;;;;1.95;0.60;;;1.00;98.60;;;;;;4990384;28;20035;-71
2024/01/15 03:53:15;;;;;;;3.58;0.85;;;1.00;98.70;;;;;;4989939;28;20472;-70
2024/01/15 03:55:41;;;;;;;1.95;0.98;;;0.90;98.60;;;;;;4995873;28;20030;-70
2024/01/15 03:58:07;;;;;;;6.63;0.82;;;1.00;98.60;;;;;;4988502;28;20106;-70
2024/01/15 04:00:32;;;;;;;4.45;1.48;;;1.00;98.50;;;;;;4993329;28;20447;-71
2024/01/15 04:02:58;;;;;;;4.68;0.93;;;1.00;98.70;;;;;;5000076;28;20121;-70
2024/01/15 04:05:23;;;;;;;0.57;0.30;;;0.90;98.80;;;;;;4990460;28;20041;-71
2024/01/15 04:07:49;;;;;;;1.55;0.52;;;0.90;98.90;;;;;;4999401;28;20122;-71
2024/01/15 04:10:14;;;;;;;1.30;0.50;;;0.90;98.90;;;;;;4995211;28;20796;-71
2024/01/15 04:12:40;;;;;;;3.28;0.73;;;0.90;99.00;;;;;;4998437;28;20054;-71
2024/01/15 04:15:06;;;;;;;1.30;0.45;;;0.90;99.10;;;;;;4995345;28;20037;-70
2024/01/15 04:17:31;;;;;;;1.30;0.30;;;0.90;99.10;;;;;;4996605;28;20038;-70
2024/01/15 04:19:57;;;;;;;3.97;0.50;;;0.80;99.10;;;;;;4997516;28;20166;-71
2024/01/15 04:22:23;;;;;;;2.38;0.82;;;0.80;99.20;;;;;;4993566;28;20035;-71
2024/01/15 04:24:48;;;;;;;3.55;0.68;;;0.80;99.10;;;;;;4999189;28;20071;-70
2024/01/15 04:27:14;;;;;;;1.70;0.40;;;0.80;99.10;;;;;;4998183;28;20507;-70
2024/01/15 04:29:39;;;;;;;2.00;0.80;;;0.80;99.00;;;;;;4998299;28;20129;-71
2024/01/15 04:32:05;;;;;;;1.00;0.40;;;0.80;99.10;;;;;;5000084;28;20377;-70
2024/01/15 04:34:30;;;;;;;0.90;0.40;;;0.80;99.10;;;;;;4998577;28;20044;-71
2024/01/15 04:36:56;;;;;;;1.38;0.70;;;0.80;99.20;;;;;;5000334;28;20120;-70
2024/01/15 04:39:22;;;;;;;0.98;0.20;;;0.80;99.20;;;;;;4998787;28;20091;-71
2024/01/15 04:41:47;;;;;;;3.22;0.85;;;0.80;99.30;;;;;;4994785;28;20042;-71
2024/01/15 04:44:13;;;;;;;6.75;1.40;;;0.70;99.40;;;;;;4997553;28;20458;-70
2024/01/15 04:46:38;;;;;;;1.67;0.68;;;0.80;99.40;;;;;;5002473;28;20132;-70
2024/01/15 04:49:04;;;;;;;3.40;0.73;;;0.80;99.50;;;;;;5005060;28;20141;-70
2024/01/15 04:51:29;;;;;;;2.40;0.55;;;0.80;99.40;;;;;;5001733;28;20034;-70
2024/01/15 04:53:55;;;;;;;3.05;0.77;;;0.80;99.40;;;;;;4998668;28;20112;-70
2024/01/15 04:56:20;;;;;;;3.58;0.52;;;0.80;99.40;;;;;;4978010;28;20038;-71
2024/01/15 04:58:46;;;;;;;1.80;0.50;;;0.80;99.40;;;;;;5003717;28;20534;-71
2024/01/15 05:01:12;;;;;;;1.42;0.45;;;0.90;99.30;;;;;;4999656;28;20031;-70
2024/01/15 05:03:37;;;;;;;0.35;0.35;;;0.80;99.10;;;;;;4996814;28;20065;-71
2024/01/15 05:06:03;;;;;;;1.48;0.60;;;0.80;99.00;;;;;;5001571;28;20359;-70
2024/01/15 05:08:28;;;;;;;1.70;0.60;;;0.80;99.10;;;;;;4998343;28;20115;-70
2024/01/15 05:10:54;;;;;;;4.25;0.55;;;0.70;99.20;;;;;;5004054;28;20064;-70
2024/01/15 05:13:19;;;;;;;2.50;0.75;;;0.70;99.20;;;;;;4995908;28;20045;-70
2024/01/15 05:15:45;;;;;;;2.97;0.40;;;0.70;99.30;;;;;;5003918;28;20049;-71
2024/01/15 05:18:10;;;;;;;1.63;0.85;;;0.70;99.30;;;;;;4999154;28;20038;-70
2024/01/15 05:20:36;;;;;;;1.27;0.47;;;0.70;99.20;;;;;;5002264;28;20129;-70
2024/01/15 05:23:01;;;;;;;2.72;0.68;;;0.60;99.30;;;;;;5006005;28;20034;-70
2024/01/15 05:25:27;;;;;;;2.30;0.73;;;0.60;99.40;;;;;;5002621;28;20439;-70
2024/01/15 05:27:52;;;;;;;5.05;0.77;;;0.60;99.30;;;;;;5000288;28;20061;-70
2024/01/15 05:30:18;;;;;;;0.68;0.40;;;0.70;99.30;;;;;;5001015;28;20387;-70
2024/01/15 05:32:43;;;;;;;1.15;0.68;;;0.60;99.20;;;;;;4996048;28;20438;-70
2024/01/15 05:35:09;;;;;;;0.85;0.43;;;0.60;99.30;;;;;;4996205;28;20116;-70
2024/01/15 05:37:34;;;;;;;2.83;0.68;;;0.60;99.30;;;;;;5006216;28;20033;-70
2024/01/15 05:39:59;;;;;;;5.65;0.60;;;0.70;99.30;;;;;;4999411;28;20052;-70
2024/01/15 05:42:26;;;;;;;4.68;0.80;;;0.70;99.20;;;;;;5002888;28;20038;-69
2024/01/15 05:44:52;;;;;;;10.23;1.05;;;0.70;99.20;;;;;;4998864;28;20077;-70
2024/01/15 05:47:18;;;;;;;0.45;0.40;;;0.70;99.10;;;;;;4999018;28;20096;-68
2024/01/15 05:49:44;;;;;;;0.93;0.43;;;0.60;99.10;;;;;;4990765;28;20025;-68
2024/01/15 05:52:09;;;;;;;4.32;0.50;;;0.60;99.20;;;;;;4996380;28;20118;-68
2024/01/15 05:54:35;;;;;;;1.13;0.40;;;0.70;99.30;;;;;;4997631;28;20213;-68
2024/01/15 05:57:00;;;;;;;3.22;0.82;;;0.60;99.20;;;;;;4994711;28;20046;-68
2024/01/15 05:59:26;;;;;;;1.15;0.40;;;0.60;99.20;;;;;;4993097;28;20355;-68
2024/01/15 06:01:51;;;;;;;1.00;0.50;;;0.60;99.30;;;;;;4996550;28;20034;-69
2024/01/15 06:04:16;;;;;;;1.02;0.47;;;0.70;99.20;;;;;;4995808;28;20034;-69
2024/01/15 06:06:42;;;;;;;1.08;0.45;;;0.80;99.20;;;;;;4998712;28;20039;-68
2024/01/15 06:09:08;;;;;;;1.90;0.80;;;0.80;99.20;;;;;;5001065;28;20037;-68
2024/01/15 06:11:34;;;;;;;0.50;0.30;;;0.80;99.10;;;;;;4997442;28;20031;-68
2024/01/15 06:14:03;;;;;;;2.97;0.32;;;0.80;99.20;;;;;;4990548;28;20096;-68
2024/01/15 06:16:29;;;;;;;0.47;0.47;;;0.80;99.10;;;;;;4991752;28;20030;-69
2024/01/15 06:18:54;;;;;;;0.65;0.30;;;0.80;99.00;;;;;;4991442;28;20022;-68
2024/01/15 06:21:20;;;;;;;1.65;0.45;;;0.80;98.90;;;;;;5000578;28;20442;-68
2024/01/15 06:23:45;;;;;;;0.20;0.20;;;0.90;98.70;;;;;;5002243;28;20066;-68
2024/01/15 06:26:14;;;;;;;1.10;0.45;;;0.90;98.70;;;;;;4991971;28;20053;-68
2024/01/15 06:28:39;;;;;;;3.28;0.98;;;0.90;98.70;;;;;;4998637;28;20518;-68
2024/01/15 06:31:06;;;;;;;0.50;0.40;;;0.90;98.70;;;;;;5000422;28;20064;-68
2024/01/15 06:33:32;;;;;;;7.95;0.50;;;0.80;98.70;;;;;;4991233;28;20118;-68
2024/01/15 06:35:57;;;;;;;2.13;0.70;;;0.80;99.00;;;;;;5001962;28;20138;-68
2024/01/15 06:38:23;;;;;;;1.48;0.57;;;0.70;99.20;;;;;;4999796;28;20111;-68
2024/01/15 06:40:49;;;;;;;3.53;1.02;;;0.60;99.40;;;;;;4991302;28;20143;-69
2024/01/15 06:43:15;;;;;;;0.60;0.30;;;0.60;99.50;;;;;;5004332;28;20121;-70
2024/01/15 06:45:41;;;;;;;2.35;0.82;;;0.60;99.80;;;;;;4998250;28;20525;-69
2024/01/15 06:48:07;;;;;;;1.17;0.60;;;0.60;99.90;;;;;;4996880;28;20053;-68
2024/01/15 06:50:33;;;;;;;2.95;0.85;;;0.60;99.90;;;;;;4978176;28;20128;-68
2024/01/15 06:52:58;;;;;;;0.30;0.30;;;0.50;99.90;;;;;;4992445;28;20026;-69
2024/01/15 06:55:24;;;;;;;1.27;0.60;;;0.50;99.90;;;;;;4990442;28;20102;-69
2024/01/15 06:57:49;;;;;;;0.30;0.30;;;0.40;99.90;;;;;;4998451;28;20155;-70
2024/01/15 07:00:15;;;;;;;5.38;0.73;;;0.40;99.90;;;;;;4998104;28;20030;-69
2024/01/15 07:02:41;;;;;;;0.60;0.30;;;0.40;99.90;;;;;;4999355;28;20034;-70
2024/01/15 07:05:07;;;;;;;0.73;0.55;;;0.40;99.90;;;;;;4995862;28;20088;-67
2024/01/15 07:07:32;;;;;;;1.02;0.43;;;0.40;99.90;;;;;;4996261;28;20485;-68
2024/01/15 07:09:58;;;;;;;1.10;0.32;;;0.40;99.90;;;;;;4992054;28;20042;-68
2024/01/15 07:12:24;;;;;;;1.00;0.40;;;0.40;99.90;;;;;;5003498;28;20041;-68
2024/01/15 07:14:49;;;;;;;2.60;0.50;;;0.40;99.90;;;;;;4994769;28;20041;-68
2024/01/15 07:17:15;;;;;;;1.55;0.50;;;0.40;99.90;;;;;;5002911;28;20131;-68
2024/01/15 07:19:41;;;;;;;0.10;0.10;;;0.40;99.90;;;;;;5003857;28;20196;-70
2024/01/15 07:22:06;;;;;;;1.75;0.35;;;0.40;99.90;;;;;;5003791;28;20084;-68
2024/01/15 07:24:34;;;;;;;0.90;0.75;;;0.40;99.90;;;;;;4996675;28;20119;-68
2024/01/15 07:26:59;;;;;;;1.88;0.40;;;0.30;99.90;;;;;;4998638;28;20045;-68
2024/01/15 07:29:25;;;;;;;1.10;0.40;;;0.30;99.90;;;;;;5000609;28;20061;-68
2024/01/15 07:31:51;;;;;;;0.93;0.25;;;0.30;99.90;;;;;;5001074;28;20418;-68
2024/01/15 07:34:17;;;;;;;0.30;0.30;;;0.30;99.90;;;;;;5004265;28;20014;-68
2024/01/15 07:36:46;;;;;;;2.20;0.65;;;0.30;99.90;;;;;;5003150;28;20052;-68
2024/01/15 07:39:11;;;;;;;0.63;0.35;;;0.40;99.90;;;;;;4999112;28;20132;-69
2024/01/15 07:41:37;;;;;;;0.32;0.32;;;0.40;99.90;;;;;;4996347;28;20060;-68
2024/01/15 07:44:02;;;;;;;1.10;0.73;;;0.40;99.90;;;;;;5003110;28;20390;-68
2024/01/15 07:46:28;;;;;;;1.92;0.85;;;0.30;99.90;;;;;;5001594;28;20050;-69
2024/01/15 07:48:57;;;;;;;3.85;1.05;;;0.30;99.90;;;;;;4999543;28;20034;-68
2024/01/15 07:51:25;;;;;;;2.78;1.00;;;0.30;99.90;;;;;;4997046;28;20110;-68
2024/01/15 07:53:53;;;;;;;3.22;1.52;;;0.20;99.90;;;;;;5004380;28;20370;-67
2024/01/15 07:56:19;;;;;;;0.70;0.50;;;0.20;99.90;;;;;;5003282;28;20022;-67
2024/01/15 07:58:44;;;;;;;0.63;0.40;;;0.20;99.90;;;;;;4992167;28;20103;-69
2024/01/15 08:01:10;;;;;;;0.85;0.40;;;0.20;99.90;;;;;;4997158;28;20068;-68
2024/01/15 08:03:36;;;;;;;0.30;0.22;;;0.10;99.90;;;;;;4996032;28;20042;-67
2024/01/15 08:06:01;;;;;;;0.30;0.28;;;0.10;99.90;;;;;;4993398;28;20059;-67
2024/01/15 08:08:27;;;;;;;0.38;0.20;;;0.10;99.90;;;;;;4998742;28;20455;-67
2024/01/15 08:10:53;;;;;;;1.55;0.30;;;0.10;99.90;;;;;;5000906;28;20038;-67
2024/01/15 08:13:18;;;;;;;0.55;0.40;;;0.10;99.90;;;;;;4979353;28;20026;-67
2024/01/15 08:15:44;;;;;;;0.63;0.30;;;0.10;99.90;;;;;;4999485;28;20435;-67
2024/01/15 08:18:09;;;;;;;2.47;0.30;;;0.10;99.90;;;;;;5005260;28;20061;-67
2024/01/15 08:20:35;;;;;;;1.25;0.40;;;0.10;99.90;;;;;;4985246;28;20030;-67
2024/01/15 08:23:00;;;;;;;0.77;0.32;;;0.10;99.90;;;;;;4994458;28;20034;-67
2024/01/15 08:25:26;;;;;;;4.03;0.57;;;0.10;99.90;;;;;;4996864;28;20077;-67
2024/01/15 08:27:52;;;;;;;0.75;0.43;;;0.10;99.90;;;;;;5005255;28;20116;-68
2024/01/15 08:30:18;;;;;;;1.08;0.40;;;0.10;99.90;;;;;;4999040;28;20100;-67
2024/01/15 08:32:44;;;;;;;0.98;0.40;;;0.10;99.90;;;;;;4984147;28;20056;-67
2024/01/15 08:35:10;;;;;;;0.90;0.40;;;0.10;99.90;;;;;;4994608;28;20185;-68
2024/01/15 08:37:35;;;;;;;0.47;0.30;;;0.10;99.90;;;;;;4991840;28;20443;-67
2024/01/15 08:40:01;;;;;;;0.55;0.40;;;0.10;99.90;;;;;;4995317;28;20045;-67
2024/01/15 08:42:26;;;;;;;0.52;0.25;;;0.10;99.90;;;;;;5000734;28;20049;-67
2024/01/15 08:44:52;;;;;;;0.52;0.32;;;0.10;99.90;;;;;;5003062;28;20062;-66
2024/01/15 08:47:17;;;;;;;0.63;0.43;;;0.10;99.90;;;;;;5000310;28;20428;-67
2024/01/15 08:49:45;;;;;;;0.40;0.40;;;0.10;99.90;;;;;;5004404;28;20109;-67
2024/01/15 08:52:10;;;;;;;1.40;0.60;;;0.10;99.90;;;;;;4999854;28;20141;-67
2024/01/15 08:54:36;;;;;;;0.93;0.55;;;0.10;99.90;;;;;;4996396;28;20141;-67
2024/01/15 08:57:01;;;;;;;2.72;0.40;;;0.20;99.90;;;;;;4992959;28;20031;-66
2024/01/15 08:59:27;;;;;;;3.15;0.57;;;0.20;99.90;;;;;;4993398;28;20382;-66
2024/01/15 09:01:53;;;;;;;3.72;0.70;;;0.20;99.90;;;;;;4995889;28;20467;-67
2024/01/15 09:04:19;;;;;;;0.60;0.30;;;0.20;99.90;;;;;;4998018;28;20464;-67
2024/01/15 09:06:46;;;;;;;0.63;0.30;;;0.30;99.90;;;;;;4994746;28;20522;-67
2024/01/15 09:09:13;;;;;;;0.30;0.25;;;0.30;99.90;;;;;;4990887;28;20034;-66
2024/01/15 09:11:38;;;;;;;1.52;0.45;;;0.30;99.90;;;;;;4993204;28;20030;-66
2024/01/15 09:14:04;;;;;;;2.10;0.55;;;0.40;99.90;;;;;;4993505;28;20041;-67
2024/01/15 09:16:29;;;;;;;2.88;0.52;;;0.40;99.90;;;;;;4998892;28;20097;-67
2024/01/15 09:18:57;;;;;;;1.13;0.38;;;0.50;99.90;;;;;;4979378;28;20026;-68
2024/01/15 09:21:24;;;;;;;0.75;0.35;;;0.50;99.90;;;;;;4984007;28;20040;-66
2024/01/15 09:23:49;;;;;;;1.45;0.38;;;0.60;99.90;;;;;;4995166;28;20018;-66
2024/01/15 09:26:15;;;;;;;0.63;0.40;;;0.60;99.90;;;;;;4990556;28;20057;-67
2024/01/15 09:28:40;;;;;;;1.10;0.40;;;0.70;99.90;;;;;;4993280;28;20065;-66
2024/01/15 09:31:06;;;;;;;4.07;0.40;;;0.70;99.90;;;;;;5003327;28;20137;-67
2024/01/15 09:33:31;;;;;;;1.77;0.50;;;0.70;99.90;;;;;;5001719;28;20050;-67
2024/01/15 09:35:57;;;;;;;0.43;0.40;;;0.70;99.70;;;;;;5000450;28;20064;-66
2024/01/15 09:38:23;;;;;;;1.45;0.52;;;0.70;99.60;;;;;;4997827;28;20523;-67
2024/01/15 09:40:49;;;;;;;0.20;0.20;;;0.80;99.50;;;;;;5002569;28;20440;-67
2024/01/15 09:43:16;;;;;;;0.65;0.40;;;0.70;99.40;;;;;;4996470;28;20050;-67
2024/01/15 09:45:43;;;;;;;0.80;0.38;;;0.80;99.30;;;;;;4999334;28;20050;-66
2024/01/15 09:48:08;;;;;;;0.40;0.40;;;0.80;99.30;;;;;;5002865;28;20113;-67
2024/01/15 09:50:34;;;;;;;1.00;0.30;;;0.70;99.20;;;;;;4997428;28;20030;-67
2024/01/15 09:53:00;;;;;;;0.38;0.38;;;0.70;99.30;;;;;;5002694;28;20463;-67
2024/01/15 09:55:28;;;;;;;0.65;0.38;;;0.70;99.30;;;;;;4999168;28;20082;-68
2024/01/15 09:57:56;;;;;;;0.40;0.28;;;0.70;99.30;;;;;;4985387;28;20128;-67
2024/01/15 10:00:23;;;;;;;0.73;0.47;;;0.60;99.40;;;;;;4991041;28;20038;-67
2024/01/15 10:02:49;;;;;;;0.63;0.52;;;0.60;99.50;;;;;;4998628;28;20045;-68
2024/01/15 10:05:14;;;;;;;0.88;0.40;;;0.50;99.60;;;;;;4997318;28;20037;-67
2024/01/15 10:07:40;;;;;;;1.10;0.60;;;0.40;99.70;;;;;;4998109;28;20113;-67
2024/01/15 10:10:07;;;;;;;0.52;0.52;;;0.40;99.80;;;;;;4993798;28;20080;-67
2024/01/15 10:12:33;;;;;;;0.93;0.40;;;0.30;99.90;;;;;;5003895;28;20357;-67
2024/01/15 10:14:58;;;;;;;0.30;0.30;;;0.30;99.90;;;;;;5002356;28;20046;-67
2024/01/15 10:17:27;;;;;;;1.10;0.55;;;0.20;99.90;;;;;;4980259;28;20049;-67
2024/01/15 10:19:52;;;;;;;5.57;0.80;;;0.10;99.90;;;;;;4999820;28;20032;-68
2024/01/15 10:22:18;;;;;;;2.13;0.63;;;0.10;99.90;;;;;;4988154;28;20025;-67
2024/01/15 10:24:43;;;;;;;3.72;0.52;;;0.20;99.90;;;;;;5001140;28;20080;-67
2024/01/15 10:27:10;;;;;;;0.98;0.60;;;0.20;99.90;;;;;;4997019;28;20037;-67
2024/01/15 10:29:36;;;;;;;1.27;0.65;;;0.20;99.90;;;;;;4993912;28;20802;-68
2024/01/15 10:32:02;;;;;;;0.43;0.38;;;0.20;99.90;;;;;;5000003;28;20034;-67
2024/01/15 10:34:28;;;;;;;0.93;0.68;;;0.20;99.90;;;;;;4977734;28;20034;-67
2024/01/15 10:36:57;;;;;;;1.98;0.60;;;0.30;99.90;;;;;;5001573;28;20034;-67
2024/01/15 10:39:23;;;;;;;0.22;0.22;;;0.30;99.90;;;;;;5003082;28;20037;-67
2024/01/15 10:41:52;;;;;;;0.52;0.50;;;0.30;99.90;;;;;;5006192;28;20034;-67
2024/01/15 10:44:18;;;;;;;1.20;0.50;;;0.40;99.90;;;;;;5005207;28;20042;-69
2024/01/15 10:46:45;;;;;;;4.68;0.60;;;0.40;99.90;;;;;;5006439;28;20084;-67
2024/01/15 10:49:11;;;;;;;0.43;0.40;;;0.40;99.90;;;;;;4992672;28;20070;-67
2024/01/15 10:51:37;;;;;;;1.25;0.40;;;0.40;99.90;;;;;;4983360;28;20178;-67
2024/01/15 10:54:03;;;;;;;1.88;0.43;;;0.40;99.90;;;;;;5005180;28;20108;-67
2024/01/15 10:56:33;;;;;;;2.10;0.45;;;0.50;99.90;;;;;;4981605;28;20042;-68
2024/01/15 10:58:59;;;;;;;0.68;0.35;;;0.50;99.90;;;;;;4998361;28;20387;-68
2024/01/15 11:01:25;;;;;;;0.20;0.20;;;0.50;99.90;;;;;;4997917;28;20498;-68
2024/01/15 11:03:51;;;;;;;0.50;0.40;;;0.50;99.90;;;;;;4996105;28;20472;-67
2024/01/15 11:06:19;;;;;;;0.40;0.40;;;0.60;99.90;;;;;;4992368;28;20026;-67
2024/01/15 11:08:48;;;;;;;0.95;0.40;;;0.60;99.70;;;;;;4999412;28;20025;-67
2024/01/15 11:11:13;;;;;;;0.47;0.40;;;0.70;99.70;;;;;;4995268;28;20030;-67
2024/01/15 11:13:38;;;;;;;0.40;0.30;;;0.80;99.60;;;;;;5001253;28;20103;-67
2024/01/15 11:16:06;;;;;;;1.48;0.95;;;0.70;99.30;;;;;;4992344;28;20435;-67
2024/01/15 11:18:36;;;;;;;0.40;0.40;;;0.70;99.40;;;;;;4993030;28;20069;-68
2024/01/15 11:21:17;;;;;;;5.78;0.85;;;0.80;99.40;;;;;;5000705;28;20339;-68
2024/01/15 11:23:54;;;;;;;0.82;0.28;;;0.70;99.40;;;;;;4998264;28;20157;-68
2024/01/15 11:26:28;;;;;;;1.25;0.30;;;0.60;99.50;;;;;;4998088;28;20038;-67
2024/01/15 11:28:55;;;;;;;0.75;0.43;;;0.60;99.60;;;;;;5001575;28;20030;-68
2024/01/15 11:31:27;;;;;;;0.40;0.30;;;0.60;99.70;;;;;;4999340;28;20030;-68
2024/01/15 11:33:52;;;;;;;0.28;0.28;;;0.40;99.80;;;;;;5000603;28;20030;-68
2024/01/15 11:36:18;;;;;;;0.20;0.20;;;0.30;99.90;;;;;;4981924;28;20442;-67
2024/01/15 11:38:43;;;;;;;0.68;0.40;;;0.30;99.90;;;;;;5002074;28;20423;-68
2024/01/15 11:41:19;;;;;;;0.38;0.30;;;0.30;99.90;;;;;;4998835;28;20077;-68
2024/01/15 11:43:44;;;;;;;0.68;0.45;;;0.40;99.90;;;;;;5002397;28;20049;-67
2024/01/15 11:46:14;;;;;;;0.90;0.57;;;0.40;99.90;;;;;;5002740;28;20049;-68
2024/01/15 11:48:44;;;;;;;0.30;0.30;;;0.50;99.90;;;;;;5002081;28;20184;-69
2024/01/15 11:51:11;;;;;;;;;;;0.60;99.90;;;;;;4996705;28;20027;-68
2024/01/15 11:53:47;;;;;;;0.68;0.50;;;0.60;99.90;;;;;;5003885;28;20004;-68
2024/01/15 11:56:17;;;;;;;1.33;0.57;;;0.50;99.90;;;;;;4994066;28;20122;-68
2024/01/15 11:58:43;;;;;;;2.90;0.60;;;0.50;99.90;;;;;;4977584;28;20382;-69
2024/01/15 12:01:10;;;;;;;2.50;0.50;;;0.50;99.90;;;;;;4998234;28;20115;-68
2024/01/15 12:03:35;;;;;;;0.95;0.82;;;0.50;99.90;;;;;;4997780;28;20445;-68
2024/01/15 12:06:01;;;;;;;1.80;0.65;;;0.50;99.90;;;;;;4983233;28;20098;-68
2024/01/15 12:08:27;;;;;;;2.03;1.02;;;0.50;99.90;;;;;;4991129;28;20034;-70
2024/01/15 12:10:52;;;;;;;3.70;0.60;;;0.50;99.90;;;;;;4983019;28;20196;-70
2024/01/15 12:13:18;;;;;;;0.60;0.60;;;0.40;99.90;;;;;;4998610;28;20052;-69
2024/01/15 12:15:45;;;;;;;2.25;0.80;;;0.40;99.90;;;;;;4989505;28;20062;-69
2024/01/15 12:18:16;;;;;;;2.13;0.80;;;0.40;99.90;;;;;;4999414;28;20030;-69
2024/01/15 12:20:43;;;;;;;1.85;0.90;;;0.30;99.90;;;;;;5003762;28;20485;-69
2024/01/15 12:23:09;;;;;;;1.88;0.80;;;0.40;99.90;;;;;;4998104;28;20049;-69
2024/01/15 12:25:35;;;;;;;1.13;0.70;;;0.30;99.90;;;;;;4995789;28;20034;-69
2024/01/15 12:28:02;;;;;;;0.43;0.22;;;0.30;99.90;;;;;;5001200;28;20054;-69
2024/01/15 12:30:28;;;;;;;0.55;0.38;;;0.30;99.90;;;;;;4988788;28;20052;-69
2024/01/15 12:32:54;;;;;;;0.30;0.30;;;0.30;99.90;;;;;;5003234;28;20040;-68
2024/01/15 12:35:20;;;;;;;0.47;0.30;;;0.30;99.90;;;;;;4979076;28;20221;-69
2024/01/15 12:37:48;;;;;;;1.90;0.68;;;0.40;99.90;;;;;;4995806;28;20129;-69
2024/01/15 12:40:20;;;;;;;1.85;1.05;;;0.40;99.90;;;;;;4979089;28;20336;-70
2024/01/15 12:42:45;;;;;;;0.77;0.70;;;0.50;99.90;;;;;;4996415;28;20038;-70
2024/01/15 12:45:13;;;;;;;0.50;0.50;;;0.50;99.90;;;;;;4996747;28;20214;-70
2024/01/15 12:47:39;;;;;;;3.22;1.23;;;0.60;99.90;;;;;;5000357;28;20056;-69
2024/01/15 12:50:10;;;;;;;2.75;1.00;;;0.60;99.90;;;;;;4976818;28;20156;-69
2024/01/15 12:52:37;;;;;;;0.88;0.60;;;0.60;99.90;;;;;;5004055;28;20400;-68